Calvin, Illinois
Current Conditions -  °F | °C
As of 12:55 AM on Sunday 26 Oct 2014 (Local Time) from KCUL Reporting Station
Haze Haze  
Wind Chill: 52°   Ceiling: Unl
Heat Index: 52°   Visibility: 4mi
Dew Point: 51°   Wind: 0mph
Humidity: 98%   Direction: NA
Pressure: 29.99"   Gusts: NA
Location:  38.1681°N, 88.0517°W
Report Text: KCUL 260555Z AUTO 00000KT 4SM BR CLR 11/11 A2999 RMK AO2 T01090106 10187 20108 402780105
Loading
Personal Weather Stations






























Interactive Weather Map
Tropical Storm Tracking
New forecast layout! Learn more

10-Day Weather Forecast

Advertisements
Track Severe Weather on mobile